createdAt,value
2022-10-15T00:03:08.411Z,2.45
2022-10-15T00:08:11.693Z,2.85
2022-10-15T00:13:13.440Z,2.90
2022-10-15T00:18:15.138Z,2.30
2022-10-15T00:23:16.809Z,2.78
2022-10-15T00:28:18.538Z,2.65
2022-10-15T00:33:22.557Z,2.35
2022-10-15T00:38:24.369Z,1.90
2022-10-15T00:43:47.705Z,2.20
2022-10-15T00:48:54.591Z,2.25
2022-10-15T00:53:56.714Z,2.28
2022-10-15T00:59:00.225Z,2.40
2022-10-15T01:04:04.577Z,2.10
2022-10-15T01:09:06.645Z,2.35
2022-10-15T01:14:16.407Z,2.33
2022-10-15T01:19:46.102Z,2.22
2022-10-15T01:25:10.870Z,2.20
2022-10-15T01:30:16.586Z,2.00
2022-10-15T01:35:21.129Z,2.15
2022-10-15T01:40:34.211Z,1.90
2022-10-15T01:45:41.788Z,1.85
2022-10-15T01:50:59.750Z,2.03
2022-10-15T01:56:09.754Z,1.73
2022-10-15T02:01:12.368Z,1.83
2022-10-15T02:06:23.906Z,1.73
2022-10-15T02:11:27.368Z,1.65
2022-10-15T02:16:43.978Z,1.88
2022-10-15T02:21:56.215Z,1.60
2022-10-15T02:27:01.035Z,1.45
2022-10-15T02:32:06.130Z,1.60
2022-10-15T02:37:08.889Z,1.63
2022-10-15T02:42:11.053Z,1.60
2022-10-15T02:47:13.027Z,1.50
2022-10-15T02:57:17.588Z,1.40
2022-10-15T03:02:20.766Z,1.15
2022-10-15T03:07:23.323Z,1.30
2022-10-15T03:12:26.010Z,1.10
2022-10-15T03:17:28.331Z,1.15
2022-10-15T03:22:30.138Z,1.10
2022-10-15T03:27:33.391Z,1.30
2022-10-15T03:32:36.322Z,1.10
2022-10-15T03:37:40.320Z,1.15
2022-10-15T03:42:44.460Z,1.38
2022-10-15T03:47:46.933Z,1.20
2022-10-15T03:52:48.734Z,1.10
2022-10-15T03:57:50.558Z,1.02
2022-10-15T04:02:53.240Z,0.90
2022-10-15T04:08:00.502Z,1.00
2022-10-15T04:13:05.201Z,0.90
2022-10-15T04:18:08.865Z,0.80
2022-10-15T04:23:11.948Z,0.80
2022-10-15T04:28:17.386Z,0.88
2022-10-15T04:33:20.933Z,0.80
2022-10-15T04:38:28.565Z,0.50
2022-10-15T04:43:36.633Z,0.77
2022-10-15T04:48:43.316Z,0.60
2022-10-15T04:53:48.148Z,0.73
2022-10-15T04:58:51.007Z,0.73
2022-10-15T05:03:53.012Z,0.75
2022-10-15T05:08:54.833Z,0.80
2022-10-15T05:14:03.762Z,0.80
2022-10-15T05:19:08.334Z,0.70
2022-10-15T05:24:12.659Z,0.70
2022-10-15T05:29:29.216Z,0.70
2022-10-15T05:34:31.384Z,0.60
2022-10-15T05:39:37.240Z,0.80
2022-10-15T05:44:39.125Z,0.73
2022-10-15T05:49:40.888Z,0.95
2022-10-15T05:54:48.690Z,0.90
2022-10-15T05:59:50.615Z,1.07
2022-10-15T06:04:53.381Z,0.90
2022-10-15T06:14:58.990Z,1.02
2022-10-15T06:20:00.678Z,1.10
2022-10-15T06:25:02.362Z,0.90
2022-10-15T06:30:04.783Z,1.30
2022-10-15T06:35:07.091Z,1.23
2022-10-15T06:40:11.300Z,1.08
2022-10-15T06:45:19.478Z,1.17
2022-10-15T06:50:23.457Z,1.00
2022-10-15T06:55:25.289Z,1.17
2022-10-15T07:00:27.892Z,1.05
2022-10-15T07:10:31.250Z,0.98
2022-10-15T07:15:33.913Z,1.10
2022-10-15T07:20:35.594Z,1.08
2022-10-15T07:25:37.428Z,1.00
2022-10-15T07:30:39.186Z,1.00
2022-10-15T07:35:40.950Z,1.00
2022-10-15T07:40:42.615Z,1.30
2022-10-15T07:45:48.061Z,1.10
2022-10-15T07:51:01.860Z,0.90
2022-10-15T07:56:07.826Z,1.00
2022-10-15T08:01:11.058Z,1.00
2022-10-15T08:06:12.929Z,0.98
2022-10-15T08:11:16.451Z,0.90
2022-10-15T08:16:20.178Z,0.70
2022-10-15T08:21:32.414Z,1.02
2022-10-15T08:26:34.893Z,1.10
2022-10-15T08:31:36.706Z,1.05
2022-10-15T08:36:38.389Z,1.00
2022-10-15T08:41:40.315Z,1.23
2022-10-15T08:46:48.989Z,1.00
2022-10-15T08:51:55.190Z,0.80
2022-10-15T08:57:15.373Z,0.90
2022-10-15T09:02:25.632Z,0.82
2022-10-15T09:07:37.411Z,0.80
2022-10-15T09:13:00.598Z,0.82
2022-10-15T09:18:02.455Z,0.80
2022-10-15T09:23:17.172Z,1.00
2022-10-15T09:28:25.434Z,0.73
2022-10-15T09:33:45.223Z,0.90
2022-10-15T09:39:09.865Z,0.77
2022-10-15T09:44:15.239Z,1.00
2022-10-15T09:49:26.344Z,1.00
2022-10-15T09:54:38.264Z,1.10
2022-10-15T09:59:52.922Z,0.60
2022-10-15T10:04:55.298Z,0.73
2022-10-15T10:10:01.954Z,0.80
2022-10-15T10:15:22.620Z,0.70
2022-10-15T10:20:32.291Z,0.50
2022-10-15T10:25:42.487Z,0.57
2022-10-15T10:30:56.119Z,0.60
2022-10-15T10:35:59.674Z,0.60
2022-10-15T10:41:08.565Z,0.40
2022-10-15T10:46:22.701Z,0.52
2022-10-15T10:51:27.680Z,0.40
2022-10-15T10:56:42.576Z,0.40
2022-10-15T11:01:45.140Z,0.47
2022-10-15T11:07:00.707Z,0.50
2022-10-15T11:12:08.299Z,0.63
2022-10-15T11:17:36.471Z,0.68
2022-10-15T11:23:02.091Z,0.73
2022-10-15T11:28:15.624Z,0.60
2022-10-15T11:33:35.150Z,0.60
2022-10-15T11:38:53.590Z,0.70
2022-10-15T11:44:28.784Z,0.70
2022-10-15T11:49:56.882Z,0.90
2022-10-15T11:55:13.867Z,0.60
2022-10-15T12:00:31.288Z,0.77
2022-10-15T12:05:41.902Z,0.80
2022-10-15T12:10:55.126Z,0.75
2022-10-15T12:16:15.397Z,0.70
2022-10-15T12:21:42.834Z,0.90
2022-10-15T12:26:44.571Z,1.00
2022-10-15T12:31:56.396Z,1.10
2022-10-15T12:37:06.505Z,0.70
2022-10-15T12:42:23.606Z,0.80
2022-10-15T12:47:51.423Z,0.80
2022-10-15T12:53:22.923Z,0.90
2022-10-15T12:58:38.705Z,0.80
2022-10-15T13:03:50.062Z,0.90
2022-10-15T13:08:56.967Z,0.68
2022-10-15T13:14:15.256Z,0.80
2022-10-15T13:19:23.786Z,0.80
2022-10-15T13:24:30.567Z,0.70
2022-10-15T13:29:32.321Z,0.90
2022-10-15T13:34:36.564Z,0.98
2022-10-15T13:39:41.754Z,0.95
2022-10-15T13:44:56.698Z,0.80
2022-10-15T13:50:21.896Z,0.80
2022-10-15T13:55:29.760Z,0.77
2022-10-15T14:00:34.798Z,0.80
2022-10-15T14:05:36.809Z,1.00
2022-10-15T14:10:38.474Z,0.80
2022-10-15T14:15:46.413Z,0.80
2022-10-15T14:20:49.264Z,1.02
2022-10-15T14:25:56.766Z,1.00
2022-10-15T14:30:58.993Z,0.85
2022-10-15T14:36:23.198Z,1.33
2022-10-15T14:41:30.489Z,0.80
2022-10-15T14:46:51.134Z,0.77
2022-10-15T14:52:11.770Z,0.98
2022-10-15T14:57:24.539Z,1.02
2022-10-15T15:02:28.722Z,0.90
2022-10-15T15:07:30.601Z,0.90
2022-10-15T15:12:33.615Z,0.83
2022-10-15T15:17:35.602Z,1.13
2022-10-15T15:22:38.238Z,0.80
2022-10-15T15:32:41.885Z,1.15
2022-10-15T15:37:43.617Z,1.00
2022-10-15T15:42:46.062Z,0.90
2022-10-15T15:47:48.088Z,1.10
2022-10-15T15:52:49.931Z,1.10
2022-10-15T15:57:51.608Z,1.93
2022-10-15T16:02:55.565Z,1.30
2022-10-15T16:07:59.753Z,1.10
2022-10-15T16:13:02.667Z,1.65
2022-10-15T16:18:04.801Z,1.60
2022-10-15T16:23:06.748Z,1.25
2022-10-15T16:28:08.802Z,1.27
2022-10-15T16:33:10.595Z,1.47
2022-10-15T16:38:12.219Z,1.27
2022-10-15T16:43:14.153Z,2.47
2022-10-15T16:48:15.837Z,1.83
2022-10-15T16:53:17.508Z,1.63
2022-10-15T16:58:19.242Z,1.40
2022-10-15T17:03:20.930Z,1.20
2022-10-15T17:08:23.913Z,2.75
2022-10-15T17:13:27.208Z,3.10
2022-10-15T17:18:28.948Z,2.90
2022-10-15T17:23:31.371Z,1.37
2022-10-15T17:28:33.538Z,1.33
2022-10-15T17:33:36.795Z,1.20
2022-10-15T17:38:38.792Z,1.15
2022-10-15T17:43:40.954Z,1.05
2022-10-15T17:48:43.511Z,1.20
2022-10-15T17:53:46.082Z,1.30
2022-10-15T17:58:48.612Z,1.48
2022-10-15T18:03:53.134Z,1.40
2022-10-15T18:08:55.779Z,1.30
2022-10-15T18:13:57.667Z,1.38
2022-10-15T18:18:59.474Z,1.50
2022-10-15T18:24:01.284Z,1.38
2022-10-15T18:29:02.897Z,2.05
2022-10-15T18:34:04.703Z,3.40
2022-10-15T18:39:06.399Z,2.17
2022-10-15T18:44:14.776Z,3.33
2022-10-15T18:49:19.179Z,1.67
2022-10-15T18:54:21.951Z,1.52
2022-10-15T19:04:28.515Z,1.30
2022-10-15T19:09:31.449Z,1.65
2022-10-15T19:14:33.162Z,1.60
2022-10-15T19:19:35.364Z,1.45
2022-10-15T19:24:37.162Z,1.73
2022-10-15T19:29:39.574Z,1.60
2022-10-15T19:34:41.584Z,1.40
2022-10-15T19:39:48.082Z,1.53
2022-10-15T19:44:49.753Z,1.63
2022-10-15T19:49:52.220Z,1.40
2022-10-15T19:54:53.907Z,1.42
2022-10-15T19:59:55.580Z,1.60
2022-10-15T20:04:57.217Z,1.75
2022-10-15T20:09:58.866Z,1.40
2022-10-15T20:15:00.780Z,1.60
2022-10-15T20:20:02.418Z,1.52
2022-10-15T20:25:04.433Z,1.52
2022-10-15T20:30:06.661Z,1.52
2022-10-15T20:35:08.960Z,1.70
2022-10-15T20:40:10.790Z,1.27
2022-10-15T20:45:14.582Z,1.80
2022-10-15T20:50:22.535Z,1.58
2022-10-15T20:55:25.463Z,1.52
2022-10-15T21:00:27.216Z,1.52
2022-10-15T21:05:28.826Z,1.70
2022-10-15T21:10:30.481Z,1.73
2022-10-15T21:15:32.441Z,1.38
2022-10-15T21:20:34.157Z,1.27
2022-10-15T21:25:35.838Z,1.30
2022-10-15T21:30:40.770Z,1.30
2022-10-15T21:35:42.449Z,1.40
2022-10-15T21:40:45.095Z,1.30
2022-10-15T21:45:46.887Z,1.85
2022-10-15T21:50:49.082Z,1.33
2022-10-15T21:55:55.428Z,1.50
2022-10-15T22:00:57.310Z,1.58
2022-10-15T22:05:59.210Z,1.80
2022-10-15T22:11:20.491Z,1.60
2022-10-15T22:16:23.663Z,1.42
2022-10-15T22:21:30.995Z,2.28
2022-10-15T22:26:36.108Z,1.73
2022-10-15T22:31:37.820Z,1.50
2022-10-15T22:36:39.591Z,2.20
2022-10-15T22:41:44.010Z,1.60
2022-10-15T22:46:46.278Z,1.60
2022-10-15T22:51:49.569Z,1.40
2022-10-15T22:56:51.627Z,2.25
2022-10-15T23:01:53.281Z,1.97
2022-10-15T23:06:54.972Z,1.60
2022-10-15T23:11:56.602Z,1.55
2022-10-15T23:16:58.271Z,1.25
2022-10-15T23:22:02.574Z,1.42
2022-10-15T23:27:04.310Z,2.20
2022-10-15T23:32:06.177Z,2.50
2022-10-15T23:37:07.854Z,2.25
2022-10-15T23:42:09.547Z,2.13
2022-10-15T23:47:11.391Z,1.97
2022-10-15T23:52:13.064Z,2.00
2022-10-15T23:57:14.792Z,2.60
